createdAt,value
2022-08-24T00:00:11.279Z,964.79
2022-08-24T00:05:14.846Z,964.72
2022-08-24T00:10:15.202Z,964.75
2022-08-24T00:15:17.260Z,964.75
2022-08-24T00:20:18.603Z,964.75
2022-08-24T00:25:20.645Z,964.76
2022-08-24T00:30:21.915Z,964.72
2022-08-24T00:35:23.531Z,964.72
2022-08-24T00:40:25.185Z,964.79
2022-08-24T00:45:27.198Z,964.79
2022-08-24T00:50:28.591Z,964.8
2022-08-24T00:55:30.492Z,964.76
2022-08-24T01:00:32.074Z,964.8
2022-08-24T01:05:33.566Z,964.77
2022-08-24T01:10:35.514Z,964.75
2022-08-24T01:15:37.249Z,964.78
2022-08-24T01:20:39.427Z,964.76
2022-08-24T01:25:41.040Z,964.76
2022-08-24T01:30:42.645Z,964.78
2022-08-24T01:35:44.051Z,964.77
2022-08-24T01:40:45.689Z,964.7
2022-08-24T01:45:47.812Z,964.69
2022-08-24T01:50:49.450Z,964.66
2022-08-24T01:55:51.317Z,964.66
2022-08-24T02:00:52.626Z,964.63
2022-08-24T02:05:53.981Z,964.64
2022-08-24T02:10:56.283Z,964.6
2022-08-24T02:15:57.269Z,964.65
2022-08-24T02:20:59.139Z,964.76
2022-08-24T02:26:01.124Z,964.68
2022-08-24T02:31:02.171Z,964.67
2022-08-24T02:36:04.105Z,964.61
2022-08-24T02:41:05.181Z,964.62
2022-08-24T02:46:06.636Z,964.7
2022-08-24T02:51:08.759Z,964.72
2022-08-24T02:56:10.419Z,964.75
2022-08-24T03:01:13.675Z,964.71
2022-08-24T03:06:13.861Z,964.74
2022-08-24T03:11:15.117Z,964.75
2022-08-24T03:16:16.535Z,964.68
2022-08-24T03:21:18.470Z,964.64
2022-08-24T03:26:19.791Z,964.72
2022-08-24T03:31:21.338Z,964.69
2022-08-24T03:36:22.791Z,964.71
2022-08-24T03:41:24.626Z,964.83
2022-08-24T03:46:25.965Z,964.82
2022-08-24T03:51:27.646Z,964.81
2022-08-24T03:56:28.856Z,964.92
2022-08-24T04:01:30.709Z,964.87
2022-08-24T04:06:32.343Z,964.88
2022-08-24T04:11:35.843Z,964.88
2022-08-24T04:16:35.446Z,964.85
2022-08-24T04:21:36.588Z,964.86
2022-08-24T04:26:44.039Z,964.8
2022-08-24T04:31:40.779Z,964.85
2022-08-24T04:36:42.063Z,964.9
2022-08-24T04:41:43.758Z,964.86
2022-08-24T04:46:45.532Z,964.93
2022-08-24T04:51:46.821Z,964.99
2022-08-24T04:56:48.128Z,965.02
2022-08-24T05:01:49.648Z,965.07
2022-08-24T05:06:53.038Z,965.07
2022-08-24T05:11:52.078Z,965.08
2022-08-24T05:16:53.901Z,965.16
2022-08-24T05:21:55.736Z,965.23
2022-08-24T05:26:57.684Z,965.24
2022-08-24T05:31:59.510Z,965.27
2022-08-24T05:37:01.147Z,965.3
2022-08-24T05:42:02.465Z,965.35
2022-08-24T05:47:04.623Z,965.39
2022-08-24T05:52:06.574Z,965.47
2022-08-24T05:57:07.942Z,965.59
2022-08-24T06:02:09.910Z,965.63
2022-08-24T06:07:11.372Z,965.68
2022-08-24T06:12:13.418Z,965.57
2022-08-24T06:17:15.324Z,965.53
2022-08-24T06:22:16.725Z,965.52
2022-08-24T06:27:18.515Z,965.51
2022-08-24T06:32:20.598Z,965.53
2022-08-24T06:37:22.382Z,965.55
2022-08-24T06:42:24.300Z,965.62
2022-08-24T06:47:25.916Z,965.53
2022-08-24T06:52:27.821Z,965.58
2022-08-24T06:57:29.428Z,965.57
2022-08-24T07:02:30.965Z,965.62
2022-08-24T07:07:32.913Z,965.65
2022-08-24T07:12:34.997Z,965.71
2022-08-24T07:17:36.454Z,965.68
2022-08-24T07:22:37.934Z,965.7
2022-08-24T07:27:39.239Z,965.74
2022-08-24T07:32:40.896Z,965.7
2022-08-24T07:37:48.717Z,965.66
2022-08-24T07:42:49.896Z,965.67
2022-08-24T07:47:55.289Z,965.7
2022-08-24T07:52:53.348Z,965.69
2022-08-24T07:57:55.322Z,965.72
2022-08-24T08:02:57.018Z,965.63
2022-08-24T08:07:59.134Z,965.63
2022-08-24T08:13:01.117Z,965.6
2022-08-24T08:18:01.739Z,965.59
2022-08-24T08:23:03.810Z,965.57
2022-08-24T08:28:12.669Z,965.57
2022-08-24T08:33:06.690Z,965.59
2022-08-24T08:38:08.175Z,965.58
2022-08-24T08:43:10.091Z,965.59
2022-08-24T09:18:21.162Z,965.61
2022-08-24T09:43:30.175Z,965.52
2022-08-24T09:48:31.493Z,965.53
2022-08-24T09:58:34.750Z,965.44
2022-08-24T10:03:38.594Z,965.45
2022-08-24T10:08:37.899Z,965.4
2022-08-24T10:18:41.707Z,965.41
2022-08-24T10:28:45.509Z,965.29
2022-08-24T10:38:49.320Z,965.27
2022-08-24T10:43:51.291Z,965.22
2022-08-24T10:58:55.868Z,965.2
2022-08-24T11:03:57.756Z,965.16
2022-08-24T11:08:59.847Z,965.15
2022-08-24T11:14:01.138Z,965.18
2022-08-24T11:24:03.596Z,965.15
2022-08-24T11:29:05.027Z,965.12
2022-08-24T11:34:06.594Z,965.09
2022-08-24T11:44:10.492Z,965.08
2022-08-24T11:49:12.125Z,965.08
2022-08-24T11:59:15.799Z,965.05
2022-08-24T12:04:17.223Z,965.06
2022-08-24T12:14:19.787Z,965.02
2022-08-24T12:19:21.911Z,965.05
2022-08-24T12:24:23.254Z,965.04
2022-08-24T12:29:25.350Z,965.05
2022-08-24T12:34:27.122Z,964.99
2022-08-24T12:39:29.063Z,965
2022-08-24T12:44:30.521Z,964.93
2022-08-24T12:49:31.699Z,964.88
2022-08-24T12:54:33.146Z,964.85
2022-08-24T12:59:34.442Z,964.9
2022-08-24T13:04:36.561Z,964.88
2022-08-24T13:09:37.878Z,964.8
2022-08-24T13:14:39.089Z,964.76
2022-08-24T13:19:40.864Z,964.77
2022-08-24T13:24:42.898Z,964.78
2022-08-24T13:29:44.167Z,964.82
2022-08-24T13:34:46.266Z,964.77
2022-08-24T13:39:47.872Z,964.73
2022-08-24T13:44:49.758Z,964.68
2022-08-24T13:49:51.493Z,964.61
2022-08-24T13:54:53.601Z,964.58
2022-08-24T13:59:55.755Z,964.6
2022-08-24T14:04:57.945Z,964.56
2022-08-24T14:09:59.378Z,964.56
2022-08-24T14:15:01.123Z,964.58
2022-08-24T14:20:02.860Z,964.61
2022-08-24T14:25:04.683Z,964.59
2022-08-24T14:30:06.394Z,964.57
2022-08-24T14:35:07.972Z,964.57
2022-08-24T14:40:09.346Z,964.51
2022-08-24T14:45:10.670Z,964.5
2022-08-24T14:50:13.216Z,964.43
2022-08-24T14:55:14.256Z,964.4
2022-08-24T15:00:16.100Z,964.4
2022-08-24T15:05:17.485Z,964.42
2022-08-24T15:10:19.508Z,964.38
2022-08-24T15:15:20.722Z,964.45
2022-08-24T15:20:22.026Z,964.45
2022-08-24T15:25:24.004Z,964.4
2022-08-24T15:30:25.301Z,964.33
2022-08-24T15:35:26.531Z,964.35
2022-08-24T15:40:28.134Z,964.31
2022-08-24T15:45:29.858Z,964.32
2022-08-24T15:50:31.124Z,964.32
2022-08-24T15:55:32.467Z,964.36
2022-08-24T16:00:36.675Z,964.36
2022-08-24T16:05:35.409Z,964.37
2022-08-24T16:10:37.545Z,964.34
2022-08-24T16:15:39.685Z,964.34
2022-08-24T16:20:41.406Z,964.32
2022-08-24T16:25:45.331Z,964.36
2022-08-24T16:30:44.822Z,964.37
2022-08-24T16:35:46.839Z,964.41
2022-08-24T16:40:50.654Z,964.37
2022-08-24T16:45:49.867Z,964.39
2022-08-24T16:50:51.399Z,964.37
2022-08-24T16:55:52.689Z,964.35
2022-08-24T17:00:54.217Z,964.37
2022-08-24T17:05:56.103Z,964.38
2022-08-24T17:10:57.536Z,964.41
2022-08-24T17:15:59.505Z,964.44
2022-08-24T17:21:01.082Z,964.41
2022-08-24T17:26:02.438Z,964.42
2022-08-24T17:31:03.868Z,964.36
2022-08-24T17:36:05.053Z,964.37
2022-08-24T17:41:07.066Z,964.35
2022-08-24T17:46:08.855Z,964.42
2022-08-24T17:51:09.955Z,964.43
2022-08-24T17:56:11.287Z,964.46
2022-08-24T18:01:13.352Z,964.48
2022-08-24T18:06:14.748Z,964.48
2022-08-24T18:11:16.073Z,964.51
2022-08-24T18:16:17.763Z,964.59
2022-08-24T18:21:19.521Z,964.55
2022-08-24T18:26:21.543Z,964.56
2022-08-24T18:31:23.680Z,964.59
2022-08-24T18:36:25.368Z,964.66
2022-08-24T18:41:26.727Z,964.75
2022-08-24T18:46:28.019Z,964.8
2022-08-24T18:51:34.094Z,964.86
2022-08-24T18:56:31.440Z,964.85
2022-08-24T19:01:32.824Z,964.91
2022-08-24T19:06:34.841Z,964.91
2022-08-24T19:11:36.681Z,964.97
2022-08-24T19:16:38.113Z,964.98
2022-08-24T19:26:41.608Z,964.99
2022-08-24T19:31:43.648Z,964.98
2022-08-24T19:36:44.956Z,964.98
2022-08-24T19:41:46.779Z,964.97
2022-08-24T19:46:48.316Z,964.96
2022-08-24T19:51:50.184Z,964.99
2022-08-24T19:56:51.560Z,964.98
2022-08-24T20:01:53.064Z,964.99
2022-08-24T20:06:54.884Z,965.02
2022-08-24T20:11:56.946Z,964.98
2022-08-24T20:16:58.943Z,964.92
2022-08-24T20:22:01.186Z,964.98
2022-08-24T20:27:02.132Z,964.97
2022-08-24T20:32:04.137Z,965
2022-08-24T20:37:05.573Z,965.02
2022-08-24T20:42:09.672Z,965.04
2022-08-24T20:47:08.741Z,965.02
2022-08-24T20:52:09.972Z,965.11
2022-08-24T20:57:11.464Z,965.1
2022-08-24T21:02:12.791Z,965.12
2022-08-24T21:07:14.281Z,965.05
2022-08-24T21:12:16.308Z,965.05
2022-08-24T21:17:17.794Z,965.07
2022-08-24T21:22:19.504Z,965.04
2022-08-24T21:27:21.554Z,965.08
2022-08-24T21:32:23.176Z,965.03
2022-08-24T21:37:24.755Z,965.05
2022-08-24T21:42:26.844Z,964.99
2022-08-24T21:47:28.799Z,964.99
2022-08-24T21:52:30.564Z,965
2022-08-24T21:57:32.437Z,964.95
2022-08-24T22:12:37.646Z,964.85
2022-08-24T22:17:39.646Z,964.83
2022-08-24T22:22:41.494Z,964.82
2022-08-24T22:27:42.809Z,964.82
2022-08-24T22:32:44.522Z,964.77
2022-08-24T22:37:45.909Z,964.73
2022-08-24T22:42:47.577Z,964.67
2022-08-24T22:47:49.270Z,964.62
2022-08-24T22:52:51.177Z,964.6
2022-08-24T22:57:53.222Z,964.55
2022-08-24T23:02:55.075Z,964.53
2022-08-24T23:07:56.364Z,964.43
2022-08-24T23:12:58.173Z,964.39
2022-08-24T23:17:59.820Z,964.39
2022-08-24T23:23:01.469Z,964.44
2022-08-24T23:28:03.196Z,964.48
2022-08-24T23:33:05.389Z,964.41
2022-08-24T23:38:06.828Z,964.36
2022-08-24T23:43:08.901Z,964.33
